Airfield :
LOGIN :

Register | Disclaimer

   EN    FR    IT 

 










Legend :    VFR   Marginal VFR   IFR   Intensive IFR   Very Intensive IFR
Visi :
Ceiling :
>= 8 km
>= 3000ft
5 to 8 km
1000 to 3000 ft
1500m to 5 km
500 to 1000 ft
800 to 1500m
200 to 500 ft
< 800m
< 200 ft
Symbols :   Thunderstorms  Fog  Heavy snow  Heavy precipitations  Wind > 20 kt
SIGMETs :     Misc.  Thunderstorms  Icing  Turbulence  Mountain Waves  Volcanic Ashes






- Airport Elevation : 218 ft
- IATA code : LBG


LFPB - Paris / Le Bourget

CURRENT METAR :
  • 050800Z AUTO 24010KT 9999 BKN012/// BKN021/// BKN052/// ///TCU 04/03 Q1002 TEMPO 30015G25KT 2000 -SHRAGS SCT012CB

EXPIRED METARs :
  • 050730Z AUTO 24011KT 9999 -RA BKN014/// BKN023/// BKN030/// ///CB 04/03 Q1002 TEMPO 30015G25KT 2000 -SHRAGS BKN006 SCT012TCU
  • 050700Z AUTO 24010KT 9999 3700 RA FEW015/// BKN030/// BKN060/// ///CB 04/02 Q1002 TEMPO 30015G25KT 2000 -SHRAGS BKN006 SCT012TCU
  • 050630Z AUTO 23007KT 9999 SCT033/// SCT074/// BKN092/// ///TCU 04/02 Q1002 TEMPO 30015G25KT 2000 -SHRAGS SCT012CB
  • 050600Z AUTO 23008KT 200V260 9999 FEW013/// SCT023/// BKN032/// ///TCU 03/02 Q1002 TEMPO 4000 -SHRA BKN006 SCT012CB
  • 050530Z AUTO 23008KT 9999 FEW037/// BKN140/// ///TCU 03/02 Q1002 TEMPO 4000 -SHRA BKN006 SCT012CB

TAF AMD TAF LFPB
Valid from the 05 at 07:00 until the 06 at 06:00 UTC


050734Z 0507/0606 23010KT 9999 BKN030
PROB40
TEMPO 0507/0521 4000 -SHRA BKN006 FEW009CB BKN012TCU
PROB30
TEMPO 0508/0519 30015G25KT 2000 -SHRAGS SCT012CB
BECMG 0512/0514 31010KT
PROB30
TEMPO 0600/0606 4000 BR BKN004
ATIS : +33 1 48 62 43 92



MET'MAP, your aeronautical weather chart ! - Copyright ORBIFLY December 2007 - Disclaimer

ORBIFLY MET'MAP TEAM :

Programming & Development : Alexandra Zaïnal
Concept & original design : Baudouin d'Aumeries
Assistance for programming : Marc-Olivier Méhu
Technical & hardware support : Manuel Goepfert

Contact : metmap@orbifly.com




SOURCES & CREDITS :

   NOAA